Time;durP1;ratioP1;P1;durP2;ratioP2;P2;SDS_P1;SDS_P2;PMS_P1;PMS_P2;Temp;Humidity;BMP_temperature;BMP_pressure;BME280_temperature;BME280_humidity;BME280_pressure;Samples;Min_cycle;Max_cycle;Signal;HPM_P1;HPM_P2
2022/11/02 00:00:54;;;;;;;;;;;14.10;99.90;;;14.36;92.78;101149.97;5113820;28;20010;-78
2022/11/02 00:03:22;;;;;;;;;;;14.10;99.90;;;14.38;92.20;101128.69;5113852;28;19919;-78
2022/11/02 00:05:51;;;;;;;;;;;14.10;99.90;;;14.35;92.74;101120.72;5113856;28;19938;-76
2022/11/02 00:08:20;;;;;;;;;;;14.20;99.90;;;14.32;92.99;101128.78;5113817;28;19920;-78
2022/11/02 00:10:48;;;;;;;;;;;14.10;99.90;;;14.35;93.57;101150.00;5113781;28;19920;-76
2022/11/02 00:13:20;;;;;;;;;;;14.10;99.90;;;14.07;93.58;101157.47;5114034;28;19920;-75
2022/11/02 00:15:48;;;;;;;;;;;13.90;99.90;;;14.01;93.55;101170.00;5113749;28;19923;-78
2022/11/02 00:18:16;;;;;;;;;;;13.80;99.90;;;13.58;92.15;101111.19;5113729;28;19931;-76
2022/11/02 00:20:44;;;;;;;;;;;13.70;99.90;;;13.34;89.88;101085.78;5113622;28;20021;-76
2022/11/02 00:23:13;;;;;;;;;;;13.50;99.90;;;13.60;89.39;101149.25;5113671;28;19955;-76
2022/11/02 00:25:46;;;;;;;;;;;13.40;99.90;;;13.43;88.78;101079.50;5112626;28;19931;-76
2022/11/02 00:28:14;;;;;;;;;;;13.30;99.90;;;13.58;88.29;101116.50;5113704;28;20288;-75
2022/11/02 00:30:43;;;;;;;;;;;13.30;99.90;;;13.46;87.38;101138.78;5113543;28;20377;-75
2022/11/02 00:33:11;;;;;;;;;;;13.20;99.90;;;13.24;86.03;101129.28;5113875;28;19930;-75
2022/11/02 00:35:40;;;;;;;;;;;13.00;99.90;;;13.28;86.16;101131.03;5113192;28;20018;-76
2022/11/02 00:38:08;;;;;;;;;;;13.00;99.90;;;13.24;84.67;101117.81;5113542;28;19919;-76
2022/11/02 00:40:36;;;;;;;;;;;13.00;99.90;;;13.15;84.69;101124.09;5113758;28;19954;-77
2022/11/02 00:43:07;;;;;;;;;;;13.00;99.90;;;12.97;84.83;101070.28;5112493;28;19920;-78
2022/11/02 00:45:35;;;;;;;;;;;13.00;99.90;;;12.90;84.51;101071.22;5113478;28;19919;-77
2022/11/02 00:48:04;;;;;;;;;;;12.90;99.90;;;13.01;84.63;101088.78;5115366;28;19920;-78
2022/11/02 00:50:32;;;;;;;;;;;13.00;99.90;;;13.15;84.57;101132.06;5117528;28;19927;-77
2022/11/02 00:53:01;;;;;;;;;;;13.00;99.90;;;13.14;84.54;101113.50;5115908;28;20014;-77
2022/11/02 00:55:29;;;;;;;;;;;12.90;99.90;;;13.14;84.33;101097.56;5117208;28;19972;-77
2022/11/02 00:58:03;;;;;;;;;;;12.90;99.90;;;13.26;84.45;101113.34;5116153;28;20381;-77
2022/11/02 01:00:32;;;;;;;;;;;13.00;99.90;;;13.15;83.85;101094.88;5116066;28;19924;-77
2022/11/02 01:03:01;;;;;;;;;;;13.00;99.90;;;13.26;83.48;101116.00;5116991;28;20280;-77
2022/11/02 01:05:30;;;;;;;;;;;13.00;99.90;;;13.24;83.78;101117.81;5116009;28;19920;-77
2022/11/02 01:07:58;;;;;;;;;;;13.00;99.90;;;13.07;83.84;101095.84;5116945;28;19926;-77
2022/11/02 01:10:27;;;;;;;;;;;13.10;99.90;;;13.22;83.78;101107.19;5132711;27;19926;-76
2022/11/02 01:12:55;;;;;;;;;;;13.10;99.90;;;13.13;83.76;101122.34;5117160;28;19919;-77
2022/11/02 01:15:23;;;;;;;;;;;13.00;99.90;;;13.29;83.65;101121.28;5117008;28;19958;-76
2022/11/02 01:17:53;;;;;;;;;;;13.00;99.90;;;13.23;83.93;101108.06;5117024;28;19924;-77
2022/11/02 01:20:21;;;;;;;;;;;13.00;99.90;;;13.22;84.08;101125.78;5115656;28;19930;-77
2022/11/02 01:22:49;;;;;;;;;;;13.00;99.90;;;13.15;84.65;101104.63;5132409;27;20018;-77
2022/11/02 01:25:19;;;;;;;;;;;13.00;99.90;;;13.20;85.13;101114.28;5116794;27;19919;-76
2022/11/02 01:27:47;;;;;;;;;;;13.00;99.90;;;13.19;85.56;101109.88;5115548;28;19920;-76
2022/11/02 01:30:15;;;;;;;;;;;12.90;99.90;;;13.18;85.52;101100.13;5116512;28;19919;-77
2022/11/02 01:32:44;;;;;;;;;;;13.00;99.90;;;13.18;85.35;101104.59;5116786;28;19919;-77
2022/11/02 01:35:13;;;;;;;;;;;13.00;99.90;;;12.98;85.84;101103.88;5115158;28;19923;-76
2022/11/02 01:37:42;;;;;;;;;;;12.90;99.90;;;13.18;85.85;101105.44;5116675;28;20017;-76
2022/11/02 01:40:11;;;;;;;;;;;12.90;99.90;;;12.91;85.68;101041.13;5132373;27;19927;-77
2022/11/02 01:42:39;;;;;;;;;;;13.00;99.90;;;13.21;85.44;101109.88;5116186;28;19949;-77
2022/11/02 01:45:09;;;;;;;;;;;12.90;99.90;;;13.14;85.44;101077.16;5116153;28;19965;-77
2022/11/02 01:47:39;;;;;;;;;;;13.10;99.90;;;13.34;85.11;101099.06;5115086;28;20018;-76
2022/11/02 01:50:10;;;;;;;;;;;13.10;99.90;;;13.37;85.29;101096.41;5116416;28;19920;-76
2022/11/02 01:52:40;;;;;;;;;;;13.10;99.90;;;13.36;85.48;101096.41;5116522;28;19919;-77
2022/11/02 01:55:10;;;;;;;;;;;13.20;99.90;;;13.41;85.39;101107.88;5116638;28;19919;-77
2022/11/02 01:57:40;;;;;;;;;;;13.20;99.90;;;13.31;85.57;101117.72;5116075;28;20365;-77
2022/11/02 02:00:10;;;;;;;;;;;13.20;99.90;;;13.35;85.96;101103.50;5115610;28;19988;-76
2022/11/02 02:02:45;;;;;;;;;;;13.20;99.90;;;13.32;86.06;101135.41;5116221;28;19973;-77
2022/11/02 02:05:14;;;;;;;;;;;13.20;99.90;;;13.58;86.66;101120.03;5131971;27;19920;-76
2022/11/02 02:07:45;;;;;;;;;;;13.30;99.90;;;13.63;87.38;101127.09;5115770;28;20010;-77
2022/11/02 02:10:13;;;;;;;;;;;13.40;99.90;;;13.52;87.17;101125.44;5116315;28;20269;-76
2022/11/02 02:12:42;;;;;;;;;;;13.30;99.90;;;13.55;87.27;101132.47;5116007;28;20382;-77
2022/11/02 02:15:12;;;;;;;;;;;13.30;99.90;;;13.59;87.05;101129.75;5131764;27;20018;-77
2022/11/02 02:17:47;;;;;;;;;;;13.30;99.90;;;13.53;86.60;101113.88;5114527;28;20373;-76
2022/11/02 02:20:25;;;;;;;;;;;13.40;99.90;;;12.96;85.57;101024.25;5114603;28;19919;-76
2022/11/02 02:23:24;;;;;;;;;;;13.30;99.90;;;13.60;85.83;101122.69;5131583;27;20008;-76
2022/11/02 02:26:07;;;;;;;;;;;13.30;99.90;;;13.67;85.91;101123.47;5106565;27;20271;-76
2022/11/02 02:28:41;;;;;;;;;;;13.40;99.90;;;13.67;86.25;101136.75;5131594;27;19957;-77
2022/11/02 02:31:14;;;;;;;;;;;13.40;99.90;;;13.75;86.23;101122.47;5131236;27;19993;-76
2022/11/02 02:33:46;;;;;;;;;;;13.50;99.90;;;13.70;85.95;101150.91;5115265;28;20006;-76
2022/11/02 02:36:21;;;;;;;;;;;13.40;99.90;;;13.64;86.13;101120.84;5115457;28;20014;-76
2022/11/02 02:38:56;;;;;;;;;;;13.50;99.90;;;13.47;86.07;101134.38;5115194;28;19919;-77
2022/11/02 02:41:31;;;;;;;;;;;13.40;99.90;;;13.52;86.61;101111.25;5115397;28;20014;-76
2022/11/02 02:44:03;;;;;;;;;;;13.30;99.90;;;13.49;87.19;101119.28;5115375;28;19919;-76
2022/11/02 02:46:34;;;;;;;;;;;13.30;99.90;;;13.37;87.60;101087.53;5131218;27;20319;-77
2022/11/02 02:49:05;;;;;;;;;;;13.30;99.90;;;13.47;88.34;101127.25;5115261;28;19920;-76
2022/11/02 02:51:34;;;;;;;;;;;13.20;99.90;;;13.45;88.93;101147.66;5115183;28;19930;-76
2022/11/02 02:54:04;;;;;;;;;;;13.20;99.90;;;13.36;89.24;101117.66;5113883;28;19930;-76
2022/11/02 02:56:37;;;;;;;;;;;13.20;99.90;;;13.49;89.92;101140.53;5115045;28;19924;-76
2022/11/02 02:59:11;;;;;;;;;;;13.30;99.90;;;13.54;90.27;101147.56;5130913;27;20262;-77
2022/11/02 03:01:39;;;;;;;;;;;13.30;99.90;;;13.31;90.69;101141.63;5114983;28;19919;-76
2022/11/02 03:04:10;;;;;;;;;;;13.30;99.90;;;13.48;91.27;101152.06;5113657;28;19996;-76
2022/11/02 03:06:38;;;;;;;;;;;13.30;99.90;;;13.49;91.40;101160.00;5113667;28;19926;-76
2022/11/02 03:09:13;;;;;;;;;;;13.30;99.90;;;13.55;91.96;101149.31;5113580;28;20361;-76
2022/11/02 03:11:50;;;;;;;;;;;13.30;99.90;;;13.59;92.53;101156.34;5112765;28;20388;-76
2022/11/02 03:14:27;;;;;;;;;;;13.40;99.90;;;13.54;93.10;101152.00;5113510;28;20281;-77
2022/11/02 03:17:06;;;;;;;;;;;13.40;99.90;;;13.64;93.47;101163.38;5130629;27;19973;-76
2022/11/02 03:19:41;;;;;;;;;;;13.40;99.90;;;13.56;93.40;101145.75;5114714;28;19980;-76
2022/11/02 03:22:15;;;;;;;;;;;13.40;99.90;;;13.57;92.25;101168.78;5114648;28;19934;-77
2022/11/02 03:24:49;;;;;;;;;;;13.40;99.90;;;13.53;92.96;101167.03;5113436;28;19924;-77
2022/11/02 03:27:21;;;;;;;;;;;13.30;99.90;;;13.62;93.13;101178.47;5113389;28;19951;-77
2022/11/02 03:29:54;;;;;;;;;;;13.30;99.90;;;13.50;93.13;101129.00;5130437;27;20361;-76
2022/11/02 03:32:26;;;;;;;;;;;13.40;99.90;;;13.61;93.52;101158.13;5130118;27;19928;-77
2022/11/02 03:34:56;;;;;;;;;;;13.30;99.90;;;13.53;93.74;101183.00;5130384;27;19919;-76
2022/11/02 03:37:28;;;;;;;;;;;13.30;99.90;;;13.55;94.29;101182.97;5130347;27;19934;-76
2022/11/02 03:40:01;;;;;;;;;;;13.30;99.90;;;13.55;94.46;101185.63;5113122;28;19920;-76
2022/11/02 03:42:32;;;;;;;;;;;13.30;99.90;;;13.57;93.92;101195.34;5129864;27;20302;-76
2022/11/02 03:45:07;;;;;;;;;;;13.30;99.90;;;13.52;94.26;101212.25;5130252;27;19920;-76
2022/11/02 03:47:36;;;;;;;;;;;13.20;99.90;;;13.43;94.20;101191.97;5130249;27;19926;-77
2022/11/02 03:50:09;;;;;;;;;;;13.20;99.90;;;13.45;94.53;101198.13;5114097;28;20289;-77
2022/11/02 03:52:41;;;;;;;;;;;13.20;99.90;;;13.47;94.10;101196.34;5130283;27;19920;-76
2022/11/02 03:55:12;;;;;;;;;;;13.20;99.90;;;13.47;94.20;101200.81;5129822;28;19920;-77
2022/11/02 03:57:43;;;;;;;;;;;13.30;99.90;;;13.52;93.93;101223.78;5114284;28;19920;-77
2022/11/02 04:00:17;;;;;;;;;;;13.30;99.90;;;13.58;94.16;101229.03;5112952;28;19924;-76
2022/11/02 04:02:56;;;;;;;;;;;13.30;99.90;;;13.63;93.69;101213.00;5113239;28;19966;-76
2022/11/02 04:05:29;;;;;;;;;;;13.40;99.90;;;13.71;93.30;101223.53;5112991;28;19920;-77
2022/11/02 04:16:18;;;;;;;;;;;13.40;99.90;;;13.38;90.18;101227.44;5130005;28;19969;-75
2022/11/02 04:25:14;;;;;;;;;;;13.30;99.90;;;13.23;90.21;101235.56;5112770;28;19926;-75
2022/11/02 04:27:19;;;;;;;;;;;13.20;99.90;;;13.55;91.20;101306.13;5134163;27;19926;-75
2022/11/02 04:29:50;;;;;;;;;;;13.30;99.90;;;13.57;91.44;101285.72;5116701;28;20018;-75
2022/11/02 04:35:04;;;;;;;;;;;13.40;99.90;;;13.54;89.38;101277.78;5132606;27;19923;-76
2022/11/02 04:40:24;;;;;;;;;;;13.40;99.90;;;13.77;87.01;101306.78;5116536;28;19924;-76
2022/11/02 04:42:53;;;;;;;;;;;13.50;99.90;;;13.80;86.70;101327.16;5133560;27;20015;-76
2022/11/02 04:45:21;;;;;;;;;;;13.50;99.90;;;13.58;85.45;101302.56;5117303;28;19919;-76
2022/11/02 04:47:51;;;;;;;;;;;13.50;99.90;;;13.82;84.63;101334.19;5133588;27;20284;-77
2022/11/02 04:50:19;;;;;;;;;;;13.60;99.90;;;13.80;83.98;101324.50;5133502;27;20285;-76
2022/11/02 04:52:55;;;;;;;;;;;13.60;99.90;;;13.92;83.79;101345.63;5133402;27;19941;-76
2022/11/02 04:55:23;;;;;;;;;;;13.60;99.90;;;13.82;83.64;101354.63;5117207;28;20377;-76
2022/11/02 04:57:53;;;;;;;;;;;13.60;99.90;;;13.83;83.11;101364.34;5132984;27;20025;-76
2022/11/02 05:00:23;;;;;;;;;;;13.50;99.90;;;13.76;82.36;101360.00;5133260;27;20018;-76
2022/11/02 05:02:54;;;;;;;;;;;13.50;99.90;;;13.76;81.23;101374.19;5117268;28;19964;-76
2022/11/02 05:05:24;;;;;;;;;;;13.50;99.90;;;13.78;80.21;101379.47;5115963;28;19923;-77
2022/11/02 05:07:55;;;;;;;;;;;13.50;99.90;;;13.72;79.63;101363.56;5133198;27;19959;-77
2022/11/02 05:10:24;;;;;;;;;;;13.50;99.90;;;13.74;78.58;101383.94;5133257;27;19930;-78
2022/11/02 05:12:57;;;;;;;;;;;13.50;99.90;;;13.84;77.86;101404.22;5115853;28;20349;-77
2022/11/02 05:15:29;;;;;;;;;;;13.60;99.90;;;13.90;77.05;101416.59;5133134;27;20010;-77
2022/11/02 05:18:00;;;;;;;;;;;13.60;99.90;;;13.67;77.19;101365.38;5115962;28;19920;-77
2022/11/02 05:20:30;;;;;;;;;;;13.70;99.90;;;13.86;76.59;101409.53;5133021;27;19942;-77
2022/11/02 05:22:58;;;;;;;;;;;13.60;99.90;;;13.71;76.29;101383.94;5133147;27;20022;-77
2022/11/02 05:25:27;;;;;;;;;;;13.70;99.90;;;13.60;76.23;101351.28;5116818;28;19966;-77
2022/11/02 05:27:56;;;;;;;;;;;13.80;99.90;;;13.70;76.09;101370.69;5132782;27;19972;-77
2022/11/02 05:30:25;;;;;;;;;;;13.80;99.90;;;13.94;76.50;101432.50;5115622;28;20013;-76
2022/11/02 05:32:56;;;;;;;;;;;13.70;99.90;;;13.79;76.14;101427.31;5132302;27;19923;-77
2022/11/02 05:35:26;;;;;;;;;;;13.70;99.90;;;13.98;75.72;101430.69;5114275;28;19919;-77
2022/11/02 05:37:55;;;;;;;;;;;13.80;99.90;;;12.50;75.51;101175.09;5132244;27;19920;-76
2022/11/02 05:40:24;;;;;;;;;;;13.80;99.90;;;14.02;75.95;101443.06;5115376;28;19930;-77
2022/11/02 05:42:59;;;;;;;;;;;13.80;99.90;;;13.87;75.98;101438.78;5115416;28;20477;-77
2022/11/02 05:45:28;;;;;;;;;;;13.80;99.90;;;13.58;75.64;101407.13;5132578;27;19919;-78
2022/11/02 05:47:56;;;;;;;;;;;13.80;99.90;;;13.99;75.00;101464.38;5116514;28;19923;-76
2022/11/02 05:50:26;;;;;;;;;;;13.80;99.90;;;14.00;74.62;101496.28;5116200;28;20018;-77
2022/11/02 05:52:54;;;;;;;;;;;13.80;99.90;;;13.95;74.57;101473.28;5116354;28;20316;-77
2022/11/02 05:55:23;;;;;;;;;;;13.80;99.90;;;13.97;74.11;101488.34;5132118;27;19926;-78
2022/11/02 05:57:52;;;;;;;;;;;13.80;99.90;;;13.75;73.86;101462.78;5116840;28;19919;-77
2022/11/02 06:00:21;;;;;;;;;;;13.70;99.90;;;13.98;73.99;101489.19;5115039;28;20280;-78
2022/11/02 06:02:55;;;;;;;;;;;13.80;99.90;;;13.19;73.21;101346.31;5115080;28;19920;-77
2022/11/02 06:05:26;;;;;;;;;;;13.80;99.90;;;13.93;72.80;101488.38;5115872;28;20395;-77
2022/11/02 06:07:58;;;;;;;;;;;13.80;99.90;;;13.96;71.70;101496.31;5116053;28;19920;-77
2022/11/02 06:10:26;;;;;;;;;;;13.80;99.90;;;13.97;71.33;101504.28;5116621;28;20034;-77
2022/11/02 06:12:56;;;;;;;;;;;13.70;99.90;;;14.02;70.98;101522.84;5116118;28;19919;-77
2022/11/02 06:15:24;;;;;;;;;;;13.80;99.90;;;13.97;71.07;101503.41;5115639;28;20014;-77
2022/11/02 06:17:52;;;;;;;;;;;13.80;99.90;;;13.94;70.79;101508.72;5114733;28;20357;-77
2022/11/02 06:20:20;;;;;;;;;;;13.90;99.90;;;13.97;71.54;101519.38;5115888;28;19919;-77
2022/11/02 06:22:50;;;;;;;;;;;13.90;99.90;;;13.94;71.38;101540.66;5115460;28;19919;-77
2022/11/02 06:25:18;;;;;;;;;;;13.80;99.90;;;13.88;71.42;101535.41;5115705;27;19920;-77
2022/11/02 06:27:55;;;;;;;;;;;13.70;99.90;;;13.94;71.23;101552.19;5115476;28;19923;-76
2022/11/02 06:30:26;;;;;;;;;;;13.80;99.90;;;13.81;71.36;101529.22;5131585;27;19948;-76
2022/11/02 06:32:54;;;;;;;;;;;13.70;99.90;;;13.83;70.46;101542.50;5115322;28;20369;-77
2022/11/02 06:35:23;;;;;;;;;;;13.80;99.90;;;13.93;69.82;101573.47;5113962;28;19942;-76
2022/11/02 06:37:52;;;;;;;;;;;13.70;99.90;;;13.98;69.75;101555.69;5115187;28;19919;-71
2022/11/02 06:40:21;;;;;;;;;;;13.80;99.90;;;13.97;69.88;101580.53;5115686;28;19924;-77
2022/11/02 06:42:56;;;;;;;;;;;13.80;99.90;;;13.99;70.11;101592.06;5115415;28;19920;-86
2022/11/02 06:45:43;;;;;;;;;;;13.80;99.90;;;13.98;69.63;101608.88;5114887;28;20460;-86
2022/11/02 06:48:12;;;;;;;;;;;13.80;99.90;;;13.88;69.94;101599.22;5115377;28;20329;-85
2022/11/02 06:50:40;;;;;;;;;;;13.80;99.90;;;13.94;70.06;101612.47;5114395;28;20476;-88
2022/11/02 06:53:09;;;;;;;;;;;13.80;99.90;;;13.66;70.11;101565.66;5114901;28;20377;-79
2022/11/02 06:55:38;;;;;;;;;;;13.70;99.90;;;13.89;69.85;101622.25;5114920;28;19973;-77
2022/11/02 06:58:06;;;;;;;;;;;13.70;99.90;;;13.92;70.03;101635.53;5115079;28;19920;-80
2022/11/02 07:00:34;;;;;;;;;;;13.70;99.90;;;13.58;70.31;101555.09;5114741;28;19967;-83
2022/11/02 07:03:04;;;;;;;;;;;13.80;99.90;;;13.92;70.32;101617.81;5114645;28;19926;-81
2022/11/02 07:05:34;;;;;;;;;;;13.90;99.90;;;14.25;70.19;101652.16;5115015;28;20365;-88
2022/11/02 07:08:02;;;;;;;;;;;14.00;99.90;;;14.35;70.10;101640.59;5114451;28;19966;-88
2022/11/02 07:10:34;;;;;;;;;;;14.20;99.90;;;14.26;68.13;101639.75;5114790;28;19920;-86
2022/11/02 07:13:02;;;;;;;;;;;14.20;99.90;;;14.31;67.39;101653.94;5114761;28;20381;-87
2022/11/02 07:15:31;;;;;;;;;;;14.10;99.90;;;14.41;67.17;101651.22;5114995;28;19925;-87
2022/11/02 07:17:59;;;;;;;;;;;14.20;99.90;;;14.29;68.14;101616.69;5114847;28;19955;-88
2022/11/02 07:20:29;;;;;;;;;;;14.30;99.90;;;14.75;68.27;101643.81;5114589;28;20273;-86
2022/11/02 07:22:59;;;;;;;;;;;14.60;99.90;;;15.05;67.77;101664.84;5114916;28;20383;-86
2022/11/02 07:25:29;;;;;;;;;;;14.90;99.90;;;15.49;67.65;101675.06;5114530;28;20369;-86
2022/11/02 07:28:00;;;;;;;;;;;15.20;99.90;;;15.75;66.28;101680.09;5114428;28;19920;-87
2022/11/02 07:30:28;;;;;;;;;;;15.50;99.90;;;15.96;65.71;101667.34;5114386;28;20372;-86
2022/11/02 07:32:57;;;;;;;;;;;15.80;99.90;;;16.24;64.16;101681.16;5114965;28;19920;-88
2022/11/02 07:35:25;;;;;;;;;;;16.00;99.90;;;16.44;63.89;101711.13;5114666;28;19935;-87
2022/11/02 07:37:57;;;;;;;;;;;16.20;99.90;;;16.18;63.07;101633.22;5130600;27;19920;-86
2022/11/02 07:40:26;;;;;;;;;;;16.30;99.90;;;16.78;62.59;101719.56;5114924;28;19919;-87
2022/11/02 07:42:54;;;;;;;;;;;16.50;99.90;;;16.31;61.55;101585.84;5114708;28;20283;-86
2022/11/02 07:45:32;;;;;;;;;;;16.70;99.90;;;16.66;60.61;101661.84;5130540;27;19927;-87
2022/11/02 07:48:00;;;;;;;;;;;16.70;99.90;;;17.23;60.15;101720.56;5114717;28;20011;-87
2022/11/02 07:50:29;;;;;;;;;;;16.90;99.90;;;17.14;59.75;101650.28;5114190;28;19919;-86
2022/11/02 07:52:59;;;;;;;;;;;17.20;99.90;;;17.78;59.08;101729.31;5114172;28;20503;-87
2022/11/02 07:55:28;;;;;;;;;;;17.50;99.90;;;17.87;58.16;101729.13;5114491;28;19928;-87
2022/11/02 07:57:58;;;;;;;;;;;17.70;99.90;;;18.15;57.65;101708.91;5113836;28;20377;-87
2022/11/02 08:00:28;;;;;;;;;;;17.90;99.90;;;17.93;56.23;101683.50;5114089;28;19920;-87
2022/11/02 08:02:59;;;;;;;;;;;18.00;99.90;;;18.51;55.77;101744.72;5113972;28;19926;-86
2022/11/02 08:05:29;;;;;;;;;;;18.20;99.90;;;18.69;55.26;101753.22;5114314;28;20288;-87
2022/11/02 08:07:58;;;;;;;;;;;18.40;99.90;;;18.82;54.51;101732.34;5114821;28;19970;-88
2022/11/02 08:10:27;;;;;;;;;;;18.60;99.90;;;18.91;54.14;101713.38;5115087;28;19919;-86
2022/11/02 08:12:56;;;;;;;;;;;18.80;99.90;;;19.21;53.33;101749.25;5114635;28;19919;-86
2022/11/02 08:15:24;;;;;;;;;;;19.00;99.90;;;18.92;52.72;101715.13;5115702;28;19926;-88
2022/11/02 08:18:05;;;;;;;;;;;18.90;99.90;;;19.10;52.22;101752.22;5120322;28;19919;-90
2022/11/02 08:20:35;;;;;;;;;;;18.80;99.90;;;19.40;52.58;101751.44;5115527;28;19920;-88
2022/11/02 08:23:04;;;;;;;;;;;19.00;99.90;;;19.63;52.09;101750.81;5112398;28;19962;-85
2022/11/02 08:25:32;;;;;;;;;;;19.30;99.90;;;19.86;51.99;101767.16;5113685;28;19927;-87
2022/11/02 08:28:01;;;;;;;;;;;19.60;99.90;;;20.24;51.96;101769.69;5114658;28;19926;-91
2022/11/02 08:30:31;;;;;;;;;;;19.90;99.90;;;20.19;50.75;101731.28;5131773;28;20021;-94
2022/11/02 08:33:04;;;;;;;;;;;20.20;99.90;;;19.58;49.42;101670.44;5115077;28;20023;-94
2022/11/02 08:35:33;;;;;;;;;;;20.10;99.90;;;20.06;49.38;101778.22;5114827;28;19977;-86
2022/11/02 08:38:01;;;;;;;;;;;19.90;99.90;;;20.29;49.52;101751.59;5113742;28;19970;-87
2022/11/02 08:40:30;;;;;;;;;;;20.20;99.90;;;20.67;48.60;101780.84;5113759;28;20262;-84
2022/11/02 08:43:03;;;;;;;;;;;20.40;99.90;;;20.91;48.24;101792.66;5113828;28;19950;-82
2022/11/02 08:45:32;;;;;;;;;;;20.60;99.90;;;21.20;48.13;101784.53;5113709;28;19926;-84
2022/11/02 08:48:22;;;;;;;;;;;20.90;99.90;;;20.98;47.43;101767.31;5113761;28;20284;-84
2022/11/02 08:50:53;;;;;;;;;;;21.00;99.90;;;21.37;47.86;101778.56;5113786;28;19926;-83
2022/11/02 08:53:21;;;;;;;;;;;21.20;99.90;;;21.49;46.80;101795.19;5113755;28;19920;-86
2022/11/02 08:55:49;;;;;;;;;;;21.40;99.90;;;21.66;46.55;101797.28;5113729;28;20283;-89
2022/11/02 08:58:18;;;;;;;;;;;21.50;99.90;;;21.36;46.21;101799.25;5113853;28;19920;-92
2022/11/02 09:00:46;;;;;;;;;;;21.40;99.90;;;20.73;46.31;101790.53;5113928;28;19920;-85
2022/11/02 09:03:15;;;;;;;;;;;20.70;99.90;;;20.11;47.18;101787.03;5114701;28;19955;-89
2022/11/02 09:05:50;;;;;;;;;;;20.20;99.90;;;19.97;48.40;101808.06;5113880;28;20384;-89
2022/11/02 09:08:20;;;;;;;;;;;19.80;99.90;;;19.88;48.92;101786.81;5113798;28;19927;-86
2022/11/02 09:10:51;;;;;;;;;;;19.80;99.90;;;20.15;49.31;101812.88;5115346;28;19924;-88
2022/11/02 09:13:23;;;;;;;;;;;19.90;99.90;;;20.28;49.84;101816.16;5118061;28;20265;-88
2022/11/02 09:15:54;;;;;;;;;;;19.90;99.90;;;20.18;49.18;101798.47;5117363;28;19962;-73
2022/11/02 09:18:23;;;;;;;;;;;20.00;99.90;;;20.07;49.60;101797.94;5115967;28;19926;-83
2022/11/02 09:20:52;;;;;;;;;;;19.80;99.90;;;20.03;49.64;101789.06;5117107;28;19920;-80
2022/11/02 09:23:21;;;;;;;;;;;19.80;99.90;;;20.14;49.91;101797.69;5116758;28;20376;-79
2022/11/02 09:25:50;;;;;;;;;;;19.90;99.90;;;20.31;49.68;101811.56;5116989;28;19920;-79
2022/11/02 09:28:18;;;;;;;;;;;20.00;99.90;;;20.22;49.79;101822.59;5116591;28;19923;-82
2022/11/02 09:30:46;;;;;;;;;;;19.90;99.90;;;20.00;49.64;101754.22;5116649;28;20414;-89
2022/11/02 09:33:14;;;;;;;;;;;20.10;99.90;;;20.54;49.45;101838.63;5117180;28;19926;-89
2022/11/02 09:35:44;;;;;;;;;;;20.20;99.90;;;20.49;49.73;101835.22;5132844;27;19920;-78
2022/11/02 09:38:14;;;;;;;;;;;20.20;99.90;;;20.22;49.79;101822.59;5116986;28;19921;-76
2022/11/02 09:40:45;;;;;;;;;;;20.00;99.90;;;20.02;51.05;101824.91;5116307;28;19986;-83
2022/11/02 09:43:20;;;;;;;;;;;19.70;99.90;;;19.85;51.47;101816.44;5115550;28;19920;-89
2022/11/02 09:45:53;;;;;;;;;;;19.60;99.90;;;19.93;51.58;101821.59;5116340;28;20414;-84
2022/11/02 09:48:27;;;;;;;;;;;19.60;99.90;;;19.98;50.77;101835.78;5116552;28;20361;-74
2022/11/02 09:51:01;;;;;;;;;;;19.60;99.90;;;19.89;50.45;101831.56;5116241;28;19968;-87
2022/11/02 09:53:38;;;;;;;;;;;19.60;99.90;;;19.84;50.85;101832.59;5116632;28;19965;-88
2022/11/02 09:56:07;;;;;;;;;;;19.60;99.90;;;19.85;50.83;101839.72;5115272;28;20014;-85
2022/11/02 09:58:37;;;;;;;;;;;19.60;99.90;;;20.22;50.76;101833.34;5115960;28;19951;-80
2022/11/02 10:01:17;;;;;;;;;;;19.80;99.90;;;20.40;49.82;101818.47;5116318;28;19920;-76
2022/11/02 10:03:58;;;;;;;;;;;20.10;99.90;;;20.50;48.95;101836.06;5115874;28;19926;-77
2022/11/02 10:06:27;;;;;;;;;;;20.20;99.90;;;20.47;49.28;101817.34;5116015;28;20013;-76
2022/11/02 10:09:00;;;;;;;;;;;20.20;99.90;;;20.16;49.15;101800.34;5116060;28;19919;-76
2022/11/02 10:11:36;;;;;;;;;;;20.10;99.90;;;20.54;49.10;101835.06;5116186;28;20296;-79
2022/11/02 10:14:12;;;;;;;;;;;20.20;99.90;;;20.16;49.12;101848.69;5114730;28;19924;-79
2022/11/02 10:16:46;;;;;;;;;;;19.90;99.90;;;20.08;50.04;101850.72;5116027;28;19967;-78
2022/11/02 10:19:16;;;;;;;;;;;19.80;99.90;;;19.76;50.71;101822.94;5115696;28;19931;-78
2022/11/02 10:21:47;;;;;;;;;;;19.70;99.90;;;19.74;50.76;101840.03;5115054;28;19920;-76
2022/11/02 10:24:27;;;;;;;;;;;19.60;99.90;;;19.39;51.13;101881.19;5131798;27;20029;-77
2022/11/02 10:26:57;;;;;;;;;;;19.20;99.90;;;19.16;55.39;101877.25;5115427;28;19920;-77
2022/11/02 10:29:34;;;;;;;;;;;18.90;99.90;;;18.86;57.16;101879.72;5113957;28;19926;-76
2022/11/02 10:32:03;;;;;;;;;;;18.60;99.90;;;18.66;58.56;101883.75;5116111;28;19920;-77
2022/11/02 10:34:32;;;;;;;;;;;18.40;99.90;;;17.51;59.15;101684.38;5115622;28;19920;-80
2022/11/02 10:37:22;;;;;;;;;;;18.30;99.90;;;18.80;59.51;101873.59;5115247;28;20420;-84
2022/11/02 10:39:59;;;;;;;;;;;18.40;99.90;;;18.75;58.10;101868.34;5111834;28;20402;-85
2022/11/02 10:42:38;;;;;;;;;;;18.60;99.90;;;18.98;57.40;101875.88;5115241;28;19927;-81
2022/11/02 10:45:33;;;;;;;;;;;18.70;99.90;;;18.67;56.90;101818.50;5114209;28;20288;-81
2022/11/02 10:48:05;;;;;;;;;;;18.70;99.90;;;19.07;57.10;101877.44;5130359;27;19966;-80
2022/11/02 10:50:45;;;;;;;;;;;18.80;99.90;;;19.03;57.73;101860.56;5114280;28;19919;-81
2022/11/02 10:53:14;;;;;;;;;;;18.80;99.90;;;19.19;55.90;101879.84;5115426;28;19934;-78
2022/11/02 10:56:11;;;;;;;;;;;18.90;99.90;;;19.02;56.15;101813.22;5115014;28;19919;-80
2022/11/02 10:58:42;;;;;;;;;;;19.10;99.90;;;19.33;55.96;101851.81;5114984;28;19955;-78
2022/11/02 11:01:11;;;;;;;;;;;19.20;99.90;;;19.53;56.21;101878.16;5130857;27;20360;-81
2022/11/02 11:03:57;;;;;;;;;;;19.20;99.90;;;19.47;56.94;101848.78;5114842;28;20018;-79
2022/11/02 11:06:28;;;;;;;;;;;19.20;99.90;;;19.52;57.27;101844.19;5114637;28;19927;-78
2022/11/02 11:09:02;;;;;;;;;;;19.30;99.90;;;19.62;56.34;101849.28;5114728;28;19972;-78
2022/11/02 11:11:33;;;;;;;;;;;19.30;99.90;;;18.88;56.09;101725.06;5114925;28;20023;-79
2022/11/02 11:14:04;;;;;;;;;;;19.40;99.90;;;19.61;56.78;101846.63;5114628;28;20011;-77
2022/11/02 11:16:54;;;;;;;;;;;19.40;99.90;;;19.67;57.07;101873.31;5114289;28;20284;-78
2022/11/02 11:19:27;;;;;;;;;;;19.40;99.90;;;19.16;56.10;101845.06;5114482;28;20377;-78
2022/11/02 11:22:26;;;;;;;;;;;19.20;99.90;;;18.67;56.89;101789.91;5114534;28;19924;-77
2022/11/02 11:25:19;;;;;;;;;;;19.00;99.90;;;19.37;56.51;101877.66;5115202;28;19926;-77
2022/11/02 11:27:57;;;;;;;;;;;19.10;99.90;;;19.47;57.29;101864.91;5114285;28;19919;-77
2022/11/02 11:30:27;;;;;;;;;;;19.20;99.90;;;19.57;55.96;101878.03;5114397;28;19920;-77
2022/11/02 11:33:17;;;;;;;;;;;19.30;99.90;;;19.49;55.85;101858.53;5112549;28;19955;-84
2022/11/02 11:35:49;;;;;;;;;;;19.20;99.90;;;19.54;56.35;101862.00;5114102;28;20358;-83
2022/11/02 11:38:19;;;;;;;;;;;19.20;99.90;;;19.55;56.37;101842.28;5114185;28;20295;-82
2022/11/02 11:40:52;;;;;;;;;;;19.40;99.90;;;19.74;55.46;101858.81;5114097;28;19959;-80
2022/11/02 11:43:24;;;;;;;;;;;19.40;99.90;;;19.17;55.70;101822.66;5114138;28;19926;-73
2022/11/02 11:45:58;;;;;;;;;;;19.40;99.90;;;19.75;56.28;101866.84;5114025;28;19955;-79
2022/11/02 11:48:39;;;;;;;;;;;19.50;99.90;;;19.79;56.54;101864.94;5130053;27;20022;-76